sensor_id;sensor_type;location;lat;lon;timestamp;P1;durP1;ratioP1;P2;durP2;ratioP2
21777;SDS011;11050;52.222;20.916;2022-07-06T00:02:15;16.70;;;11.50;;
21777;SDS011;11050;52.222;20.916;2022-07-06T00:04:41;13.45;;;10.98;;
21777;SDS011;11050;52.222;20.916;2022-07-06T00:07:07;13.35;;;10.90;;
21777;SDS011;11050;52.222;20.916;2022-07-06T00:09:33;12.07;;;10.73;;
21777;SDS011;11050;52.222;20.916;2022-07-06T00:11:59;11.70;;;10.07;;
21777;SDS011;11050;52.222;20.916;2022-07-06T00:14:25;10.90;;;9.73;;
21777;SDS011;11050;52.222;20.916;2022-07-06T00:16:51;10.82;;;9.73;;
21777;SDS011;11050;52.222;20.916;2022-07-06T00:19:17;8.95;;;8.05;;
21777;SDS011;11050;52.222;20.916;2022-07-06T00:21:43;9.98;;;8.98;;
21777;SDS011;11050;52.222;20.916;2022-07-06T00:24:09;9.98;;;9.00;;
21777;SDS011;11050;52.222;20.916;2022-07-06T00:26:35;10.55;;;9.57;;
21777;SDS011;11050;52.222;20.916;2022-07-06T00:29:01;9.90;;;8.90;;
21777;SDS011;11050;52.222;20.916;2022-07-06T00:31:27;10.18;;;9.27;;
21777;SDS011;11050;52.222;20.916;2022-07-06T00:33:53;10.60;;;9.60;;
21777;SDS011;11050;52.222;20.916;2022-07-06T00:36:19;10.48;;;9.48;;
21777;SDS011;11050;52.222;20.916;2022-07-06T00:38:45;11.55;;;9.18;;
21777;SDS011;11050;52.222;20.916;2022-07-06T00:41:12;11.27;;;9.80;;
21777;SDS011;11050;52.222;20.916;2022-07-06T00:43:49;10.25;;;9.25;;
21777;SDS011;11050;52.222;20.916;2022-07-06T00:46:22;11.85;;;10.50;;
21777;SDS011;11050;52.222;20.916;2022-07-06T00:48:58;14.50;;;9.55;;
21777;SDS011;11050;52.222;20.916;2022-07-06T00:51:30;9.93;;;8.93;;
21777;SDS011;11050;52.222;20.916;2022-07-06T00:54:03;10.63;;;9.52;;
21777;SDS011;11050;52.222;20.916;2022-07-06T00:56:30;11.60;;;9.02;;
21777;SDS011;11050;52.222;20.916;2022-07-06T00:58:58;10.73;;;9.73;;
21777;SDS011;11050;52.222;20.916;2022-07-06T01:01:28;10.15;;;9.23;;
21777;SDS011;11050;52.222;20.916;2022-07-06T01:03:54;10.55;;;9.45;;
21777;SDS011;11050;52.222;20.916;2022-07-06T01:06:20;9.70;;;8.77;;
21777;SDS011;11050;52.222;20.916;2022-07-06T01:08:46;9.68;;;8.23;;
21777;SDS011;11050;52.222;20.916;2022-07-06T01:11:12;9.63;;;7.93;;
21777;SDS011;11050;52.222;20.916;2022-07-06T01:13:38;9.57;;;8.57;;
21777;SDS011;11050;52.222;20.916;2022-07-06T01:16:05;16.90;;;9.23;;
21777;SDS011;11050;52.222;20.916;2022-07-06T01:18:30;12.23;;;9.30;;
21777;SDS011;11050;52.222;20.916;2022-07-06T01:21:10;12.48;;;9.07;;
21777;SDS011;11050;52.222;20.916;2022-07-06T01:23:39;12.45;;;8.63;;
21777;SDS011;11050;52.222;20.916;2022-07-06T01:26:12;12.27;;;8.68;;
21777;SDS011;11050;52.222;20.916;2022-07-06T01:28:48;11.63;;;9.13;;
21777;SDS011;11050;52.222;20.916;2022-07-06T01:31:26;10.77;;;8.75;;
21777;SDS011;11050;52.222;20.916;2022-07-06T01:33:53;11.07;;;8.48;;
21777;SDS011;11050;52.222;20.916;2022-07-06T01:36:21;11.30;;;8.43;;
21777;SDS011;11050;52.222;20.916;2022-07-06T01:38:49;10.52;;;8.20;;
21777;SDS011;11050;52.222;20.916;2022-07-06T01:41:20;12.63;;;8.25;;
21777;SDS011;11050;52.222;20.916;2022-07-06T01:43:46;11.93;;;8.38;;
21777;SDS011;11050;52.222;20.916;2022-07-06T01:46:12;13.88;;;8.35;;
21777;SDS011;11050;52.222;20.916;2022-07-06T01:48:39;11.20;;;8.10;;
21777;SDS011;11050;52.222;20.916;2022-07-06T01:51:06;11.38;;;8.50;;
21777;SDS011;11050;52.222;20.916;2022-07-06T01:53:32;11.88;;;8.48;;
21777;SDS011;11050;52.222;20.916;2022-07-06T01:55:58;14.50;;;9.35;;
21777;SDS011;11050;52.222;20.916;2022-07-06T01:58:24;15.45;;;9.65;;
21777;SDS011;11050;52.222;20.916;2022-07-06T02:00:49;14.40;;;9.45;;
21777;SDS011;11050;52.222;20.916;2022-07-06T02:03:15;14.07;;;9.32;;
21777;SDS011;11050;52.222;20.916;2022-07-06T02:05:41;16.40;;;9.98;;
21777;SDS011;11050;52.222;20.916;2022-07-06T02:08:07;13.90;;;9.10;;
21777;SDS011;11050;52.222;20.916;2022-07-06T02:10:32;16.00;;;9.88;;
21777;SDS011;11050;52.222;20.916;2022-07-06T02:12:58;15.95;;;9.88;;
21777;SDS011;11050;52.222;20.916;2022-07-06T02:15:24;13.23;;;10.00;;
21777;SDS011;11050;52.222;20.916;2022-07-06T02:17:50;13.70;;;9.77;;
21777;SDS011;11050;52.222;20.916;2022-07-06T02:20:16;13.05;;;9.68;;
21777;SDS011;11050;52.222;20.916;2022-07-06T02:22:41;12.15;;;9.68;;
21777;SDS011;11050;52.222;20.916;2022-07-06T02:25:07;13.88;;;9.93;;
21777;SDS011;11050;52.222;20.916;2022-07-06T02:27:33;14.05;;;9.48;;
21777;SDS011;11050;52.222;20.916;2022-07-06T02:29:59;12.30;;;9.30;;
21777;SDS011;11050;52.222;20.916;2022-07-06T02:32:25;12.23;;;9.80;;
21777;SDS011;11050;52.222;20.916;2022-07-06T02:34:51;13.85;;;9.88;;
21777;SDS011;11050;52.222;20.916;2022-07-06T02:37:17;12.35;;;9.63;;
21777;SDS011;11050;52.222;20.916;2022-07-06T02:39:43;10.70;;;8.25;;
21777;SDS011;11050;52.222;20.916;2022-07-06T02:42:09;12.30;;;8.60;;
21777;SDS011;11050;52.222;20.916;2022-07-06T02:44:35;10.77;;;8.98;;
21777;SDS011;11050;52.222;20.916;2022-07-06T02:47:01;10.95;;;8.93;;
21777;SDS011;11050;52.222;20.916;2022-07-06T02:49:27;11.90;;;8.95;;
21777;SDS011;11050;52.222;20.916;2022-07-06T02:51:53;9.85;;;8.95;;
21777;SDS011;11050;52.222;20.916;2022-07-06T02:54:18;13.07;;;9.02;;
21777;SDS011;11050;52.222;20.916;2022-07-06T02:56:44;10.82;;;9.68;;
21777;SDS011;11050;52.222;20.916;2022-07-06T02:59:15;11.57;;;9.13;;
21777;SDS011;11050;52.222;20.916;2022-07-06T03:01:42;11.55;;;9.98;;
21777;SDS011;11050;52.222;20.916;2022-07-06T03:04:07;10.60;;;9.57;;
21777;SDS011;11050;52.222;20.916;2022-07-06T03:06:33;10.55;;;9.55;;
21777;SDS011;11050;52.222;20.916;2022-07-06T03:08:59;12.82;;;9.27;;
21777;SDS011;11050;52.222;20.916;2022-07-06T03:11:25;9.35;;;8.45;;
21777;SDS011;11050;52.222;20.916;2022-07-06T03:13:51;9.40;;;8.45;;
21777;SDS011;11050;52.222;20.916;2022-07-06T03:16:17;9.55;;;8.70;;
21777;SDS011;11050;52.222;20.916;2022-07-06T03:18:43;11.27;;;9.55;;
21777;SDS011;11050;52.222;20.916;2022-07-06T03:21:08;11.43;;;9.30;;
21777;SDS011;11050;52.222;20.916;2022-07-06T03:23:34;10.27;;;9.27;;
21777;SDS011;11050;52.222;20.916;2022-07-06T03:26:01;10.32;;;9.20;;
21777;SDS011;11050;52.222;20.916;2022-07-06T03:28:26;9.63;;;8.65;;
21777;SDS011;11050;52.222;20.916;2022-07-06T03:30:52;10.18;;;9.18;;
21777;SDS011;11050;52.222;20.916;2022-07-06T03:33:18;10.60;;;9.38;;
21777;SDS011;11050;52.222;20.916;2022-07-06T03:35:44;9.63;;;8.63;;
21777;SDS011;11050;52.222;20.916;2022-07-06T03:38:10;10.23;;;9.23;;
21777;SDS011;11050;52.222;20.916;2022-07-06T03:40:36;9.38;;;8.45;;
21777;SDS011;11050;52.222;20.916;2022-07-06T03:43:02;9.50;;;8.27;;
21777;SDS011;11050;52.222;20.916;2022-07-06T03:45:27;9.45;;;8.55;;
21777;SDS011;11050;52.222;20.916;2022-07-06T03:47:53;9.52;;;8.60;;
21777;SDS011;11050;52.222;20.916;2022-07-06T03:50:19;9.63;;;8.23;;
21777;SDS011;11050;52.222;20.916;2022-07-06T03:52:45;10.05;;;8.07;;
21777;SDS011;11050;52.222;20.916;2022-07-06T03:55:11;12.55;;;8.43;;
21777;SDS011;11050;52.222;20.916;2022-07-06T03:57:37;8.15;;;7.45;;
21777;SDS011;11050;52.222;20.916;2022-07-06T04:00:05;8.18;;;7.38;;
21777;SDS011;11050;52.222;20.916;2022-07-06T04:02:33;7.80;;;6.78;;
21777;SDS011;11050;52.222;20.916;2022-07-06T04:04:59;7.55;;;6.63;;
21777;SDS011;11050;52.222;20.916;2022-07-06T04:07:25;11.15;;;6.28;;
21777;SDS011;11050;52.222;20.916;2022-07-06T04:09:51;7.53;;;6.63;;
21777;SDS011;11050;52.222;20.916;2022-07-06T04:12:17;7.15;;;6.53;;
21777;SDS011;11050;52.222;20.916;2022-07-06T04:14:43;7.53;;;6.80;;
21777;SDS011;11050;52.222;20.916;2022-07-06T04:17:09;7.63;;;6.93;;
21777;SDS011;11050;52.222;20.916;2022-07-06T04:19:53;7.72;;;6.50;;
21777;SDS011;11050;52.222;20.916;2022-07-06T04:22:19;8.05;;;5.93;;
21777;SDS011;11050;52.222;20.916;2022-07-06T04:24:45;7.28;;;6.57;;
21777;SDS011;11050;52.222;20.916;2022-07-06T04:27:10;7.47;;;6.13;;
21777;SDS011;11050;52.222;20.916;2022-07-06T04:29:36;7.20;;;6.50;;
21777;SDS011;11050;52.222;20.916;2022-07-06T04:32:02;7.35;;;6.10;;
21777;SDS011;11050;52.222;20.916;2022-07-06T04:34:28;6.72;;;6.13;;
21777;SDS011;11050;52.222;20.916;2022-07-06T04:36:54;7.65;;;6.95;;
21777;SDS011;11050;52.222;20.916;2022-07-06T04:39:20;9.05;;;6.63;;
21777;SDS011;11050;52.222;20.916;2022-07-06T04:41:46;7.72;;;6.18;;
21777;SDS011;11050;52.222;20.916;2022-07-06T04:44:11;6.22;;;5.53;;
21777;SDS011;11050;52.222;20.916;2022-07-06T04:46:37;6.53;;;5.30;;
21777;SDS011;11050;52.222;20.916;2022-07-06T04:49:03;6.20;;;5.60;;
21777;SDS011;11050;52.222;20.916;2022-07-06T04:51:29;6.13;;;5.28;;
21777;SDS011;11050;52.222;20.916;2022-07-06T04:53:54;6.07;;;5.47;;
21777;SDS011;11050;52.222;20.916;2022-07-06T04:56:20;7.97;;;5.78;;
21777;SDS011;11050;52.222;20.916;2022-07-06T04:58:46;6.72;;;5.80;;
21777;SDS011;11050;52.222;20.916;2022-07-06T05:01:11;6.57;;;5.97;;
21777;SDS011;11050;52.222;20.916;2022-07-06T05:03:37;7.13;;;6.30;;
21777;SDS011;11050;52.222;20.916;2022-07-06T05:06:06;6.40;;;5.80;;
21777;SDS011;11050;52.222;20.916;2022-07-06T05:08:33;7.43;;;6.30;;
21777;SDS011;11050;52.222;20.916;2022-07-06T05:10:59;7.18;;;5.95;;
21777;SDS011;11050;52.222;20.916;2022-07-06T05:13:25;7.25;;;5.70;;
21777;SDS011;11050;52.222;20.916;2022-07-06T05:15:51;5.80;;;5.25;;
21777;SDS011;11050;52.222;20.916;2022-07-06T05:18:17;5.70;;;5.20;;
21777;SDS011;11050;52.222;20.916;2022-07-06T05:20:43;7.18;;;5.05;;
21777;SDS011;11050;52.222;20.916;2022-07-06T05:23:09;5.40;;;4.80;;
21777;SDS011;11050;52.222;20.916;2022-07-06T05:25:35;5.85;;;4.93;;
21777;SDS011;11050;52.222;20.916;2022-07-06T05:28:02;5.22;;;4.72;;
21777;SDS011;11050;52.222;20.916;2022-07-06T05:30:28;6.35;;;4.88;;
21777;SDS011;11050;52.222;20.916;2022-07-06T05:32:54;4.82;;;4.32;;
21777;SDS011;11050;52.222;20.916;2022-07-06T05:35:20;6.55;;;3.78;;
21777;SDS011;11050;52.222;20.916;2022-07-06T05:37:45;5.40;;;4.47;;
21777;SDS011;11050;52.222;20.916;2022-07-06T05:40:11;4.88;;;4.25;;
21777;SDS011;11050;52.222;20.916;2022-07-06T05:42:37;6.22;;;4.50;;
21777;SDS011;11050;52.222;20.916;2022-07-06T05:45:03;4.78;;;4.38;;
21777;SDS011;11050;52.222;20.916;2022-07-06T05:47:30;4.88;;;4.40;;
21777;SDS011;11050;52.222;20.916;2022-07-06T05:50:14;5.13;;;4.53;;
21777;SDS011;11050;52.222;20.916;2022-07-06T05:52:41;4.75;;;4.30;;
21777;SDS011;11050;52.222;20.916;2022-07-06T05:55:20;9.45;;;7.63;;
21777;SDS011;11050;52.222;20.916;2022-07-06T05:57:46;10.75;;;9.55;;
21777;SDS011;11050;52.222;20.916;2022-07-06T06:00:12;11.30;;;9.23;;
21777;SDS011;11050;52.222;20.916;2022-07-06T06:02:38;11.07;;;9.75;;
21777;SDS011;11050;52.222;20.916;2022-07-06T06:05:09;10.52;;;9.52;;
21777;SDS011;11050;52.222;20.916;2022-07-06T06:07:36;12.23;;;10.05;;
21777;SDS011;11050;52.222;20.916;2022-07-06T06:10:07;12.25;;;9.23;;
21777;SDS011;11050;52.222;20.916;2022-07-06T06:12:39;13.95;;;8.43;;
21777;SDS011;11050;52.222;20.916;2022-07-06T06:15:06;11.32;;;8.82;;
21777;SDS011;11050;52.222;20.916;2022-07-06T06:17:33;9.70;;;8.25;;
21777;SDS011;11050;52.222;20.916;2022-07-06T06:20:02;9.88;;;7.60;;
21777;SDS011;11050;52.222;20.916;2022-07-06T06:22:48;7.90;;;6.47;;
21777;SDS011;11050;52.222;20.916;2022-07-06T06:25:38;10.27;;;5.95;;
21777;SDS011;11050;52.222;20.916;2022-07-06T06:28:05;10.52;;;5.82;;
21777;SDS011;11050;52.222;20.916;2022-07-06T06:30:34;6.22;;;5.50;;
21777;SDS011;11050;52.222;20.916;2022-07-06T06:33:08;6.85;;;5.47;;
21777;SDS011;11050;52.222;20.916;2022-07-06T06:35:43;8.63;;;6.28;;
21777;SDS011;11050;52.222;20.916;2022-07-06T06:38:14;7.18;;;5.70;;
21777;SDS011;11050;52.222;20.916;2022-07-06T06:40:41;9.82;;;6.00;;
21777;SDS011;11050;52.222;20.916;2022-07-06T06:43:07;7.93;;;5.55;;
21777;SDS011;11050;52.222;20.916;2022-07-06T06:45:34;7.53;;;5.50;;
21777;SDS011;11050;52.222;20.916;2022-07-06T06:48:00;7.72;;;5.40;;
21777;SDS011;11050;52.222;20.916;2022-07-06T06:50:26;6.90;;;5.85;;
21777;SDS011;11050;52.222;20.916;2022-07-06T06:52:53;9.98;;;6.28;;
21777;SDS011;11050;52.222;20.916;2022-07-06T06:55:18;8.25;;;5.68;;
21777;SDS011;11050;52.222;20.916;2022-07-06T06:57:44;7.45;;;5.53;;
21777;SDS011;11050;52.222;20.916;2022-07-06T07:00:11;7.47;;;5.22;;
21777;SDS011;11050;52.222;20.916;2022-07-06T07:02:37;10.10;;;5.38;;
21777;SDS011;11050;52.222;20.916;2022-07-06T07:05:03;8.63;;;5.63;;
21777;SDS011;11050;52.222;20.916;2022-07-06T07:07:30;9.05;;;5.80;;
21777;SDS011;11050;52.222;20.916;2022-07-06T07:09:56;5.82;;;5.10;;
21777;SDS011;11050;52.222;20.916;2022-07-06T07:12:22;6.28;;;5.38;;
21777;SDS011;11050;52.222;20.916;2022-07-06T07:14:48;7.03;;;5.65;;
21777;SDS011;11050;52.222;20.916;2022-07-06T07:17:14;8.77;;;5.60;;
21777;SDS011;11050;52.222;20.916;2022-07-06T07:19:40;12.55;;;5.88;;
21777;SDS011;11050;52.222;20.916;2022-07-06T07:22:06;11.68;;;6.95;;
21777;SDS011;11050;52.222;20.916;2022-07-06T07:24:31;7.22;;;6.40;;
21777;SDS011;11050;52.222;20.916;2022-07-06T07:26:57;10.57;;;7.50;;
21777;SDS011;11050;52.222;20.916;2022-07-06T07:29:23;12.20;;;7.65;;
21777;SDS011;11050;52.222;20.916;2022-07-06T07:31:49;11.93;;;8.18;;
21777;SDS011;11050;52.222;20.916;2022-07-06T07:34:15;15.82;;;8.18;;
21777;SDS011;11050;52.222;20.916;2022-07-06T07:36:41;17.45;;;8.98;;
21777;SDS011;11050;52.222;20.916;2022-07-06T07:39:07;12.43;;;7.38;;
21777;SDS011;11050;52.222;20.916;2022-07-06T07:41:32;11.20;;;7.60;;
21777;SDS011;11050;52.222;20.916;2022-07-06T07:43:58;9.95;;;5.65;;
21777;SDS011;11050;52.222;20.916;2022-07-06T07:46:24;8.05;;;4.50;;
21777;SDS011;11050;52.222;20.916;2022-07-06T07:48:50;4.93;;;3.95;;
21777;SDS011;11050;52.222;20.916;2022-07-06T07:51:16;5.97;;;3.90;;
21777;SDS011;11050;52.222;20.916;2022-07-06T07:53:41;6.70;;;3.60;;
21777;SDS011;11050;52.222;20.916;2022-07-06T07:56:07;9.05;;;3.70;;
21777;SDS011;11050;52.222;20.916;2022-07-06T07:58:33;6.63;;;3.30;;
21777;SDS011;11050;52.222;20.916;2022-07-06T08:00:59;3.15;;;2.72;;
21777;SDS011;11050;52.222;20.916;2022-07-06T08:03:25;6.63;;;3.38;;
21777;SDS011;11050;52.222;20.916;2022-07-06T08:05:51;3.92;;;3.05;;
21777;SDS011;11050;52.222;20.916;2022-07-06T08:08:18;7.63;;;2.83;;
21777;SDS011;11050;52.222;20.916;2022-07-06T08:10:45;5.63;;;3.38;;
21777;SDS011;11050;52.222;20.916;2022-07-06T08:13:11;6.53;;;3.25;;
21777;SDS011;11050;52.222;20.916;2022-07-06T08:15:37;5.70;;;2.90;;
21777;SDS011;11050;52.222;20.916;2022-07-06T08:18:03;6.30;;;2.78;;
21777;SDS011;11050;52.222;20.916;2022-07-06T08:20:29;4.72;;;2.55;;
21777;SDS011;11050;52.222;20.916;2022-07-06T08:22:55;5.63;;;2.17;;
21777;SDS011;11050;52.222;20.916;2022-07-06T08:25:21;3.00;;;1.98;;
21777;SDS011;11050;52.222;20.916;2022-07-06T08:27:47;3.33;;;2.22;;
21777;SDS011;11050;52.222;20.916;2022-07-06T08:30:13;4.43;;;1.67;;
21777;SDS011;11050;52.222;20.916;2022-07-06T08:32:40;4.28;;;2.25;;
21777;SDS011;11050;52.222;20.916;2022-07-06T08:35:07;2.90;;;1.63;;
21777;SDS011;11050;52.222;20.916;2022-07-06T08:37:34;7.05;;;1.60;;
21777;SDS011;11050;52.222;20.916;2022-07-06T08:40:00;2.30;;;1.90;;
21777;SDS011;11050;52.222;20.916;2022-07-06T08:42:29;4.28;;;2.00;;
21777;SDS011;11050;52.222;20.916;2022-07-06T08:45:03;2.38;;;1.65;;
21777;SDS011;11050;52.222;20.916;2022-07-06T08:47:32;2.03;;;1.60;;
21777;SDS011;11050;52.222;20.916;2022-07-06T08:50:01;4.53;;;1.52;;
21777;SDS011;11050;52.222;20.916;2022-07-06T08:52:28;2.05;;;1.70;;
21777;SDS011;11050;52.222;20.916;2022-07-06T08:54:55;2.60;;;1.45;;
21777;SDS011;11050;52.222;20.916;2022-07-06T08:57:21;1.65;;;1.20;;
21777;SDS011;11050;52.222;20.916;2022-07-06T08:59:48;2.47;;;1.30;;
21777;SDS011;11050;52.222;20.916;2022-07-06T09:02:14;3.20;;;1.27;;
21777;SDS011;11050;52.222;20.916;2022-07-06T09:04:42;3.50;;;1.20;;
21777;SDS011;11050;52.222;20.916;2022-07-06T09:07:09;2.20;;;1.23;;
21777;SDS011;11050;52.222;20.916;2022-07-06T09:09:35;2.20;;;1.20;;
21777;SDS011;11050;52.222;20.916;2022-07-06T09:12:02;3.40;;;1.25;;
21777;SDS011;11050;52.222;20.916;2022-07-06T09:14:28;2.58;;;1.50;;
21777;SDS011;11050;52.222;20.916;2022-07-06T09:17:02;3.33;;;1.48;;
21777;SDS011;11050;52.222;20.916;2022-07-06T09:19:31;1.27;;;1.10;;
21777;SDS011;11050;52.222;20.916;2022-07-06T09:21:59;1.88;;;1.00;;
21777;SDS011;11050;52.222;20.916;2022-07-06T09:24:26;2.38;;;1.10;;
21777;SDS011;11050;52.222;20.916;2022-07-06T09:26:55;1.98;;;1.23;;
21777;SDS011;11050;52.222;20.916;2022-07-06T09:29:27;3.15;;;1.05;;
21777;SDS011;11050;52.222;20.916;2022-07-06T09:31:58;1.25;;;0.88;;
21777;SDS011;11050;52.222;20.916;2022-07-06T09:34:32;3.50;;;0.98;;
21777;SDS011;11050;52.222;20.916;2022-07-06T09:37:10;6.35;;;1.10;;
21777;SDS011;11050;52.222;20.916;2022-07-06T09:39:36;5.65;;;1.17;;
21777;SDS011;11050;52.222;20.916;2022-07-06T09:42:03;2.17;;;1.02;;
21777;SDS011;11050;52.222;20.916;2022-07-06T09:44:35;4.85;;;1.00;;
21777;SDS011;11050;52.222;20.916;2022-07-06T09:47:07;2.33;;;0.90;;
21777;SDS011;11050;52.222;20.916;2022-07-06T09:49:38;1.17;;;0.90;;
21777;SDS011;11050;52.222;20.916;2022-07-06T09:52:06;1.63;;;0.80;;
21777;SDS011;11050;52.222;20.916;2022-07-06T09:54:35;1.00;;;0.90;;
21777;SDS011;11050;52.222;20.916;2022-07-06T09:57:03;2.63;;;0.80;;
21777;SDS011;11050;52.222;20.916;2022-07-06T09:59:32;1.63;;;1.00;;
21777;SDS011;11050;52.222;20.916;2022-07-06T10:02:03;1.25;;;0.70;;
21777;SDS011;11050;52.222;20.916;2022-07-06T10:04:32;2.25;;;0.85;;
21777;SDS011;11050;52.222;20.916;2022-07-06T10:06:59;4.72;;;0.90;;
21777;SDS011;11050;52.222;20.916;2022-07-06T10:09:26;2.60;;;0.90;;
21777;SDS011;11050;52.222;20.916;2022-07-06T10:11:54;1.58;;;0.73;;
21777;SDS011;11050;52.222;20.916;2022-07-06T10:14:30;2.10;;;0.82;;
21777;SDS011;11050;52.222;20.916;2022-07-06T10:17:02;2.05;;;0.80;;
21777;SDS011;11050;52.222;20.916;2022-07-06T10:19:32;2.58;;;0.90;;
21777;SDS011;11050;52.222;20.916;2022-07-06T10:21:59;2.88;;;0.90;;
21777;SDS011;11050;52.222;20.916;2022-07-06T10:24:29;1.70;;;1.00;;
21777;SDS011;11050;52.222;20.916;2022-07-06T10:26:59;2.15;;;0.80;;
21777;SDS011;11050;52.222;20.916;2022-07-06T10:29:25;2.28;;;1.00;;
21777;SDS011;11050;52.222;20.916;2022-07-06T10:31:51;1.92;;;0.95;;
21777;SDS011;11050;52.222;20.916;2022-07-06T10:34:19;6.00;;;1.15;;
21777;SDS011;11050;52.222;20.916;2022-07-06T10:36:48;3.63;;;0.80;;
21777;SDS011;11050;52.222;20.916;2022-07-06T10:39:16;0.80;;;0.60;;
21777;SDS011;11050;52.222;20.916;2022-07-06T10:42:55;3.70;;;0.80;;
21777;SDS011;11050;52.222;20.916;2022-07-06T10:53:12;4.25;;;0.90;;
21777;SDS011;11050;52.222;20.916;2022-07-06T10:55:42;3.15;;;0.80;;
21777;SDS011;11050;52.222;20.916;2022-07-06T10:58:12;1.85;;;0.90;;
21777;SDS011;11050;52.222;20.916;2022-07-06T11:03:33;3.13;;;1.10;;
21777;SDS011;11050;52.222;20.916;2022-07-06T11:08:49;1.73;;;0.80;;
21777;SDS011;11050;52.222;20.916;2022-07-06T11:11:20;1.55;;;0.90;;
21777;SDS011;11050;52.222;20.916;2022-07-06T11:14:03;1.65;;;0.90;;
21777;SDS011;11050;52.222;20.916;2022-07-06T11:16:39;1.95;;;1.00;;
21777;SDS011;11050;52.222;20.916;2022-07-06T11:21:37;131.68;;;14.40;;
21777;SDS011;11050;52.222;20.916;2022-07-06T11:26:44;2.00;;;0.82;;
21777;SDS011;11050;52.222;20.916;2022-07-06T11:29:12;1.02;;;0.60;;
21777;SDS011;11050;52.222;20.916;2022-07-06T11:31:41;2.13;;;0.95;;
21777;SDS011;11050;52.222;20.916;2022-07-06T11:34:11;2.00;;;0.80;;
21777;SDS011;11050;52.222;20.916;2022-07-06T11:36:42;1.83;;;0.75;;
21777;SDS011;11050;52.222;20.916;2022-07-06T11:39:08;24.33;;;3.42;;
21777;SDS011;11050;52.222;20.916;2022-07-06T11:41:34;10.73;;;1.10;;
21777;SDS011;11050;52.222;20.916;2022-07-06T11:44:02;1.65;;;0.90;;
21777;SDS011;11050;52.222;20.916;2022-07-06T11:51:27;3.08;;;0.98;;
21777;SDS011;11050;52.222;20.916;2022-07-06T11:53:56;2.28;;;1.00;;
21777;SDS011;11050;52.222;20.916;2022-07-06T11:56:25;2.85;;;1.23;;
21777;SDS011;11050;52.222;20.916;2022-07-06T11:58:53;4.75;;;1.30;;
21777;SDS011;11050;52.222;20.916;2022-07-06T12:01:24;1.42;;;0.70;;
21777;SDS011;11050;52.222;20.916;2022-07-06T12:03:53;3.33;;;1.02;;
21777;SDS011;11050;52.222;20.916;2022-07-06T12:06:25;2.40;;;0.80;;
21777;SDS011;11050;52.222;20.916;2022-07-06T12:08:52;2.05;;;0.75;;
21777;SDS011;11050;52.222;20.916;2022-07-06T12:11:25;2.78;;;1.27;;
21777;SDS011;11050;52.222;20.916;2022-07-06T12:13:54;2.65;;;1.15;;
21777;SDS011;11050;52.222;20.916;2022-07-06T12:16:30;2.80;;;0.88;;
21777;SDS011;11050;52.222;20.916;2022-07-06T12:19:00;2.50;;;0.90;;
21777;SDS011;11050;52.222;20.916;2022-07-06T12:21:31;1.50;;;0.70;;
21777;SDS011;11050;52.222;20.916;2022-07-06T12:23:58;1.40;;;1.00;;
21777;SDS011;11050;52.222;20.916;2022-07-06T12:26:26;2.35;;;1.00;;
21777;SDS011;11050;52.222;20.916;2022-07-06T12:29:02;2.03;;;0.80;;
21777;SDS011;11050;52.222;20.916;2022-07-06T12:34:23;2.40;;;0.90;;
21777;SDS011;11050;52.222;20.916;2022-07-06T12:36:51;2.83;;;0.70;;
21777;SDS011;11050;52.222;20.916;2022-07-06T12:39:20;2.78;;;0.82;;
21777;SDS011;11050;52.222;20.916;2022-07-06T12:41:50;6.10;;;0.80;;
21777;SDS011;11050;52.222;20.916;2022-07-06T12:44:24;3.17;;;0.77;;
21777;SDS011;11050;52.222;20.916;2022-07-06T12:46:56;5.07;;;0.90;;
21777;SDS011;11050;52.222;20.916;2022-07-06T12:49:32;1.23;;;0.70;;
21777;SDS011;11050;52.222;20.916;2022-07-06T12:54:28;2.20;;;0.80;;
21777;SDS011;11050;52.222;20.916;2022-07-06T12:59:25;1.92;;;0.82;;
21777;SDS011;11050;52.222;20.916;2022-07-06T13:01:54;1.60;;;0.90;;
21777;SDS011;11050;52.222;20.916;2022-07-06T13:04:22;2.55;;;0.88;;
21777;SDS011;11050;52.222;20.916;2022-07-06T13:06:54;2.00;;;0.88;;
21777;SDS011;11050;52.222;20.916;2022-07-06T13:09:20;5.13;;;0.95;;
21777;SDS011;11050;52.222;20.916;2022-07-06T13:11:48;2.72;;;0.98;;
21777;SDS011;11050;52.222;20.916;2022-07-06T13:14:14;1.40;;;0.85;;
21777;SDS011;11050;52.222;20.916;2022-07-06T13:16:42;4.10;;;0.98;;
21777;SDS011;11050;52.222;20.916;2022-07-06T13:19:09;4.03;;;0.98;;
21777;SDS011;11050;52.222;20.916;2022-07-06T13:21:35;1.52;;;1.00;;
21777;SDS011;11050;52.222;20.916;2022-07-06T13:24:01;2.95;;;0.77;;
21777;SDS011;11050;52.222;20.916;2022-07-06T13:26:29;3.42;;;1.20;;
21777;SDS011;11050;52.222;20.916;2022-07-06T13:28:58;3.30;;;0.95;;
21777;SDS011;11050;52.222;20.916;2022-07-06T13:31:26;1.30;;;0.77;;
21777;SDS011;11050;52.222;20.916;2022-07-06T13:33:52;2.05;;;0.80;;
21777;SDS011;11050;52.222;20.916;2022-07-06T13:36:20;2.28;;;0.90;;
21777;SDS011;11050;52.222;20.916;2022-07-06T13:38:46;5.25;;;0.93;;
21777;SDS011;11050;52.222;20.916;2022-07-06T13:41:11;2.83;;;0.90;;
21777;SDS011;11050;52.222;20.916;2022-07-06T13:43:37;4.53;;;1.15;;
21777;SDS011;11050;52.222;20.916;2022-07-06T13:46:03;1.20;;;0.82;;
21777;SDS011;11050;52.222;20.916;2022-07-06T13:48:31;10.32;;;1.10;;
21777;SDS011;11050;52.222;20.916;2022-07-06T13:50:57;1.40;;;1.00;;
21777;SDS011;11050;52.222;20.916;2022-07-06T13:53:24;3.78;;;1.00;;
21777;SDS011;11050;52.222;20.916;2022-07-06T13:55:50;2.03;;;1.10;;
21777;SDS011;11050;52.222;20.916;2022-07-06T13:58:17;1.92;;;0.82;;
21777;SDS011;11050;52.222;20.916;2022-07-06T14:00:43;4.85;;;1.10;;
21777;SDS011;11050;52.222;20.916;2022-07-06T14:03:09;3.25;;;1.15;;
21777;SDS011;11050;52.222;20.916;2022-07-06T14:05:35;1.52;;;0.95;;
21777;SDS011;11050;52.222;20.916;2022-07-06T14:08:01;4.97;;;0.88;;
21777;SDS011;11050;52.222;20.916;2022-07-06T14:10:27;2.80;;;1.23;;
21777;SDS011;11050;52.222;20.916;2022-07-06T14:12:53;4.03;;;1.08;;
21777;SDS011;11050;52.222;20.916;2022-07-06T14:15:22;2.47;;;0.90;;
21777;SDS011;11050;52.222;20.916;2022-07-06T14:17:47;3.88;;;1.13;;
21777;SDS011;11050;52.222;20.916;2022-07-06T14:20:14;1.35;;;1.10;;
21777;SDS011;11050;52.222;20.916;2022-07-06T14:22:40;3.50;;;1.27;;
21777;SDS011;11050;52.222;20.916;2022-07-06T14:25:07;4.82;;;1.45;;
21777;SDS011;11050;52.222;20.916;2022-07-06T14:27:33;2.42;;;1.10;;
21777;SDS011;11050;52.222;20.916;2022-07-06T14:30:00;1.52;;;1.02;;
21777;SDS011;11050;52.222;20.916;2022-07-06T14:32:27;3.60;;;1.20;;
21777;SDS011;11050;52.222;20.916;2022-07-06T14:34:52;2.03;;;1.10;;
21777;SDS011;11050;52.222;20.916;2022-07-06T14:37:18;3.50;;;1.08;;
21777;SDS011;11050;52.222;20.916;2022-07-06T14:39:44;6.55;;;1.45;;
21777;SDS011;11050;52.222;20.916;2022-07-06T14:42:11;2.03;;;0.90;;
21777;SDS011;11050;52.222;20.916;2022-07-06T14:44:38;1.73;;;1.00;;
21777;SDS011;11050;52.222;20.916;2022-07-06T14:47:04;2.22;;;0.95;;
21777;SDS011;11050;52.222;20.916;2022-07-06T14:49:30;2.28;;;1.08;;
21777;SDS011;11050;52.222;20.916;2022-07-06T14:51:56;1.95;;;1.10;;
21777;SDS011;11050;52.222;20.916;2022-07-06T14:54:25;1.10;;;0.82;;
21777;SDS011;11050;52.222;20.916;2022-07-06T14:56:51;2.40;;;0.90;;
21777;SDS011;11050;52.222;20.916;2022-07-06T14:59:18;4.68;;;1.40;;
21777;SDS011;11050;52.222;20.916;2022-07-06T15:01:44;3.60;;;1.08;;
21777;SDS011;11050;52.222;20.916;2022-07-06T15:04:10;3.08;;;1.05;;
21777;SDS011;11050;52.222;20.916;2022-07-06T15:06:36;2.40;;;1.10;;